Time,TemperatureF,DewpointF,PressureIn,WindDirection,WindDirectionDegrees,WindSpeedMPH,WindSpeedGustMPH,Humidity,HourlyPrecipIn,Conditions,Clouds,dailyrainin,SolarRadiationWatts/m^2,SoftwareType,DateUTC
2013-01-15 00:00:00,46.2,42.0,30.03,NNE,22,3.0,7.0,85,0.00,,,0.00,0.00,VWS V14.00,2013-01-15 06:00:00,
2013-01-15 00:15:00,46.2,42.2,30.03,NNE,22,4.0,10.0,86,0.00,,,0.00,0.00,VWS V14.00,2013-01-15 06:15:00,
2013-01-15 00:30:00,46.1,41.8,30.03,NNE,22,4.0,9.0,85,0.00,,,0.00,0.00,VWS V14.00,2013-01-15 06:30:00,
2013-01-15 00:45:00,46.2,42.2,30.03,North,0,3.0,6.0,86,0.00,,,0.00,0.00,VWS V14.00,2013-01-15 06:45:00,
2013-01-15 01:00:00,46.2,42.5,30.01,North,0,3.0,7.0,87,0.00,,,0.00,0.00,VWS V14.00,2013-01-15 07:00:00,
2013-01-15 01:15:00,45.9,42.3,30.00,NNE,22,3.0,10.0,87,0.00,,,0.00,0.00,VWS V14.00,2013-01-15 07:15:00,
2013-01-15 01:30:00,45.8,42.2,30.01,North,0,3.0,7.0,87,0.00,,,0.00,0.00,VWS V14.00,2013-01-15 07:30:00,
2013-01-15 01:45:00,45.6,42.0,30.01,North,0,2.0,6.0,87,0.00,,,0.00,0.00,VWS V14.00,2013-01-15 07:45:00,
2013-01-15 02:00:00,45.5,42.2,30.00,North,0,3.0,6.0,88,0.00,,,0.00,0.00,VWS V14.00,2013-01-15 08:00:00,
2013-01-15 02:15:00,45.2,42.2,30.00,North,0,2.0,6.0,89,0.00,,,0.00,0.00,VWS V14.00,2013-01-15 08:15:00,
2013-01-15 02:30:00,45.1,42.3,30.00,NNW,338,1.0,7.0,90,0.00,,,0.00,0.00,VWS V14.00,2013-01-15 08:30:00,
2013-01-15 02:45:00,45.1,42.6,30.00,NNW,338,0.0,3.0,91,0.00,,,0.00,0.00,VWS V14.00,2013-01-15 08:45:00,
2013-01-15 03:00:00,44.9,42.4,30.01,NNW,338,1.0,4.0,91,0.00,,,0.00,0.00,VWS V14.00,2013-01-15 09:00:00,
2013-01-15 03:15:00,44.6,42.4,30.00,North,0,1.0,5.0,92,0.00,,,0.01,0.00,VWS V14.00,2013-01-15 09:15:00,
2013-01-15 03:30:00,44.4,42.2,30.01,NNW,338,2.0,6.0,92,0.00,,,0.02,0.00,VWS V14.00,2013-01-15 09:30:00,
2013-01-15 03:45:00,44.5,42.6,30.02,NNW,338,1.0,3.0,93,0.04,,,0.03,0.00,VWS V14.00,2013-01-15 09:45:00,
2013-01-15 04:00:00,44.2,42.3,30.01,NW,315,2.0,7.0,93,0.08,,,0.04,0.00,VWS V14.00,2013-01-15 10:00:00,
2013-01-15 04:15:00,44.0,42.1,30.01,NW,309,2.0,5.0,93,0.04,,,0.05,0.00,VWS V14.00,2013-01-15 10:15:00,
2013-01-15 04:30:00,43.9,42.3,30.02,NW,315,2.0,11.0,94,0.00,,,0.05,0.00,VWS V14.00,2013-01-15 10:30:00,
2013-01-15 04:45:00,43.7,42.1,30.01,NW,315,2.0,9.0,94,0.00,,,0.06,0.00,VWS V14.00,2013-01-15 10:45:00,
2013-01-15 05:00:00,43.7,42.1,30.02,WNW,292,1.0,7.0,94,0.00,,,0.07,0.00,VWS V14.00,2013-01-15 11:00:00,
2013-01-15 05:15:00,43.5,41.9,30.01,NNW,338,2.0,11.0,94,0.00,,,0.07,0.00,VWS V14.00,2013-01-15 11:15:00,
2013-01-15 05:30:00,43.6,42.0,30.01,NW,315,2.0,9.0,94,0.00,,,0.07,0.00,VWS V14.00,2013-01-15 11:30:00,
2013-01-15 05:45:00,43.5,41.9,30.02,North,0,2.0,11.0,94,0.00,,,0.07,0.00,VWS V14.00,2013-01-15 11:45:00,
2013-01-15 06:00:00,43.5,41.9,30.02,North,0,3.0,11.0,94,0.00,,,0.08,0.00,VWS V14.00,2013-01-15 12:00:00,
2013-01-15 06:15:00,43.6,42.3,30.03,North,0,2.0,10.0,95,0.00,,,0.08,0.00,VWS V14.00,2013-01-15 12:15:00,
2013-01-15 06:30:00,43.7,42.4,30.03,NNW,338,3.0,10.0,95,0.00,,,0.09,0.00,VWS V14.00,2013-01-15 12:30:00,
2013-01-15 06:45:00,43.1,41.5,30.04,NNW,338,3.0,11.0,94,0.00,,,0.09,0.00,VWS V14.00,2013-01-15 12:45:00,
2013-01-15 07:00:00,42.8,41.2,30.03,North,0,4.0,10.0,94,0.00,,,0.09,0.00,VWS V14.00,2013-01-15 13:00:00,
2013-01-15 07:15:00,42.8,41.5,30.04,North,0,3.0,10.0,95,0.00,,,0.10,0.00,VWS V14.00,2013-01-15 13:15:00,
2013-01-15 07:30:00,42.6,41.3,30.05,North,0,4.0,11.0,95,0.00,,,0.10,0.00,VWS V14.00,2013-01-15 13:30:00,
2013-01-15 07:45:00,42.3,41.0,30.06,NNW,338,2.0,7.0,95,0.00,,,0.10,0.00,VWS V14.00,2013-01-15 13:45:00,
2013-01-15 08:00:00,42.3,41.0,30.07,North,0,3.0,12.0,95,0.00,,,0.10,3.00,VWS V14.00,2013-01-15 14:00:00,
2013-01-15 08:15:00,41.6,40.0,30.06,North,0,5.0,13.0,94,0.00,,,0.11,13.00,VWS V14.00,2013-01-15 14:15:00,
2013-01-15 08:30:00,41.7,40.4,30.06,North,0,4.0,11.0,95,0.00,,,0.11,23.00,VWS V14.00,2013-01-15 14:30:00,
2013-01-15 08:45:00,41.2,39.6,30.06,North,0,5.0,14.0,94,0.00,,,0.11,28.00,VWS V14.00,2013-01-15 14:45:00,
2013-01-15 09:00:00,41.1,39.5,30.06,North,0,6.0,13.0,94,0.00,,,0.11,37.00,VWS V14.00,2013-01-15 15:00:00,
2013-01-15 09:15:00,41.0,39.4,30.06,North,0,5.0,12.0,94,0.00,,,0.11,38.00,VWS V14.00,2013-01-15 15:15:00,
2013-01-15 09:30:00,41.1,39.5,30.06,North,0,6.0,14.0,94,0.00,,,0.11,47.00,VWS V14.00,2013-01-15 15:30:00,
2013-01-15 09:45:00,41.0,41.0,30.07,North,0,6.0,12.0,100,0.00,,,0.11,31.00,VWS V14.00,2013-01-15 15:45:00,
2013-01-15 10:00:00,40.9,39.3,30.06,North,0,6.0,15.0,94,0.00,,,0.11,27.00,VWS V14.00,2013-01-15 16:00:00,
2013-01-15 10:15:00,41.0,39.4,30.07,North,0,5.0,12.0,94,0.00,,,0.11,37.00,VWS V14.00,2013-01-15 16:15:00,
2013-01-15 10:30:00,41.1,39.5,30.07,North,0,4.0,12.0,94,0.00,,,0.11,41.00,VWS V14.00,2013-01-15 16:30:00,
2013-01-15 10:45:00,41.0,39.4,30.07,North,0,4.0,11.0,94,0.00,,,0.11,53.00,VWS V14.00,2013-01-15 16:45:00,
2013-01-15 11:00:00,41.3,39.7,30.05,North,0,4.0,10.0,94,0.00,,,0.11,102.00,VWS V14.00,2013-01-15 17:00:00,
2013-01-15 11:15:00,41.2,39.6,30.05,North,0,4.0,13.0,94,0.00,,,0.11,81.00,VWS V14.00,2013-01-15 17:15:00,
2013-01-15 11:30:00,41.0,39.4,30.04,North,0,5.0,12.0,94,0.00,,,0.11,69.00,VWS V14.00,2013-01-15 17:30:00,
2013-01-15 11:45:00,41.3,39.7,30.03,North,0,5.0,14.0,94,0.00,,,0.11,85.00,VWS V14.00,2013-01-15 17:45:00,
2013-01-15 12:00:00,41.4,39.8,30.03,North,0,5.0,10.0,94,0.00,,,0.11,78.00,VWS V14.00,2013-01-15 18:00:00,
2013-01-15 12:15:00,41.9,40.3,30.03,North,0,3.0,9.0,94,0.00,,,0.11,64.00,VWS V14.00,2013-01-15 18:15:00,
2013-01-15 12:30:00,41.9,40.3,30.03,NNW,338,2.0,9.0,94,0.00,,,0.11,83.00,VWS V14.00,2013-01-15 18:30:00,
2013-01-15 12:45:00,41.9,40.3,30.02,North,0,3.0,9.0,94,0.00,,,0.11,64.00,VWS V14.00,2013-01-15 18:45:00,
2013-01-15 13:00:00,41.8,40.2,30.01,NW,315,2.0,9.0,94,0.00,,,0.11,66.00,VWS V14.00,2013-01-15 19:00:00,
2013-01-15 13:15:00,42.1,40.5,30.01,North,0,3.0,10.0,94,0.00,,,0.11,107.00,VWS V14.00,2013-01-15 19:15:00,
2013-01-15 13:30:00,42.0,40.1,30.02,NW,315,3.0,9.0,93,0.00,,,0.11,89.00,VWS V14.00,2013-01-15 19:30:00,
2013-01-15 13:45:00,42.1,40.2,30.01,NW,315,2.0,10.0,93,0.00,,,0.11,60.00,VWS V14.00,2013-01-15 19:45:00,
2013-01-15 14:00:00,41.9,40.0,30.00,NW,315,2.0,7.0,93,0.00,,,0.11,62.00,VWS V14.00,2013-01-15 20:00:00,
2013-01-15 14:15:00,41.8,39.9,30.00,NW,315,2.0,11.0,93,0.00,,,0.11,70.00,VWS V14.00,2013-01-15 20:15:00,
2013-01-15 14:30:00,41.7,39.8,30.01,NW,315,3.0,7.0,93,0.00,,,0.11,55.00,VWS V14.00,2013-01-15 20:30:00,
2013-01-15 14:45:00,41.4,39.5,30.01,NW,315,2.0,5.0,93,0.00,,,0.11,34.00,VWS V14.00,2013-01-15 20:45:00,
2013-01-15 15:04:00,41.4,39.8,30.01,NW,315,3.0,7.0,94,0.00,,,0.11,38.00,VWS V14.00,2013-01-15 21:04:00,
2013-01-15 15:15:00,41.1,39.2,30.01,NW,315,3.0,10.0,93,0.00,,,0.11,28.00,VWS V14.00,2013-01-15 21:15:00,
2013-01-15 15:30:00,41.0,39.1,30.01,NW,315,3.0,12.0,93,0.00,,,0.11,32.00,VWS V14.00,2013-01-15 21:30:00,
2013-01-15 15:45:00,40.6,38.7,30.03,NW,315,4.0,12.0,93,0.00,,,0.11,25.00,VWS V14.00,2013-01-15 21:45:00,
2013-01-15 16:00:00,40.5,38.9,30.04,NW,315,3.0,9.0,94,0.00,,,0.11,25.00,VWS V14.00,2013-01-15 22:00:00,
2013-01-15 16:15:00,40.5,38.9,30.04,NW,315,3.0,7.0,94,0.00,,,0.11,25.00,VWS V14.00,2013-01-15 22:15:00,
2013-01-15 16:30:00,40.5,38.6,30.04,NW,315,3.0,9.0,93,0.00,,,0.11,21.00,VWS V14.00,2013-01-15 22:30:00,
2013-01-15 16:45:00,40.3,38.4,30.05,WNW,292,3.0,9.0,93,0.00,,,0.11,18.00,VWS V14.00,2013-01-15 22:45:00,
2013-01-15 17:00:00,40.4,38.5,30.06,NW,315,3.0,11.0,93,0.00,,,0.11,14.00,VWS V14.00,2013-01-15 23:00:00,
2013-01-15 17:15:00,40.3,38.4,30.06,NW,315,3.0,9.0,93,0.00,,,0.11,7.00,VWS V14.00,2013-01-15 23:15:00,
2013-01-15 17:30:00,40.2,38.1,30.06,WNW,292,3.0,10.0,92,0.00,,,0.11,4.00,VWS V14.00,2013-01-15 23:30:00,
2013-01-15 17:45:00,40.1,38.0,30.07,NW,315,3.0,7.0,92,0.00,,,0.11,0.00,VWS V14.00,2013-01-15 23:45:00,
2013-01-15 18:00:00,39.9,37.8,30.08,NW,315,4.0,10.0,92,0.00,,,0.11,0.00,VWS V14.00,2013-01-16 00:00:00,
2013-01-15 18:15:00,39.8,37.4,30.08,NW,315,3.0,10.0,91,0.00,,,0.11,0.00,VWS V14.00,2013-01-16 00:15:00,
2013-01-15 18:30:00,39.7,37.3,30.08,NW,315,3.0,14.0,91,0.00,,,0.11,0.00,VWS V14.00,2013-01-16 00:30:00,
2013-01-15 18:45:00,39.8,37.4,30.09,NW,315,3.0,10.0,91,0.00,,,0.11,0.00,VWS V14.00,2013-01-16 00:45:00,
2013-01-15 19:00:00,39.7,37.3,30.10,NW,315,3.0,9.0,91,0.00,,,0.11,0.00,VWS V14.00,2013-01-16 01:00:00,
2013-01-15 19:15:00,39.8,37.4,30.10,NW,315,3.0,10.0,91,0.00,,,0.11,0.00,VWS V14.00,2013-01-16 01:15:00,
2013-01-15 19:30:00,39.7,37.0,30.10,WNW,292,3.0,12.0,90,0.00,,,0.11,0.00,VWS V14.00,2013-01-16 01:30:00,
2013-01-15 19:45:00,39.6,36.9,30.10,NW,315,3.0,11.0,90,0.00,,,0.11,0.00,VWS V14.00,2013-01-16 01:45:00,
2013-01-15 20:00:00,39.7,37.0,30.10,NW,315,3.0,12.0,90,0.00,,,0.11,0.00,VWS V14.00,2013-01-16 02:00:00,
2013-01-15 20:15:00,39.7,37.0,30.11,NW,315,4.0,11.0,90,0.00,,,0.11,0.00,VWS V14.00,2013-01-16 02:15:00,
2013-01-15 20:30:00,39.7,37.0,30.10,NW,315,3.0,9.0,90,0.00,,,0.11,0.00,VWS V14.00,2013-01-16 02:30:00,
2013-01-15 20:45:00,39.7,37.0,30.11,North,0,4.0,14.0,90,0.00,,,0.11,0.00,VWS V14.00,2013-01-16 02:45:00,
2013-01-15 21:00:00,39.7,37.0,30.12,North,0,3.0,10.0,90,0.00,,,0.11,0.00,VWS V14.00,2013-01-16 03:00:00,
2013-01-15 21:15:00,39.8,37.1,30.12,NNW,338,4.0,14.0,90,0.00,,,0.11,0.00,VWS V14.00,2013-01-16 03:15:00,
2013-01-15 21:30:00,39.9,37.2,30.11,NNW,338,3.0,11.0,90,0.00,,,0.11,0.00,VWS V14.00,2013-01-16 03:30:00,
2013-01-15 21:45:00,39.9,37.2,30.12,NW,315,3.0,11.0,90,0.00,,,0.11,0.00,VWS V14.00,2013-01-16 03:45:00,
2013-01-15 22:00:00,40.0,37.3,30.12,NW,315,3.0,11.0,90,0.00,,,0.11,0.00,VWS V14.00,2013-01-16 04:00:00,
2013-01-15 22:15:00,40.0,37.0,30.12,North,0,4.0,13.0,89,0.00,,,0.11,0.00,VWS V14.00,2013-01-16 04:15:00,
2013-01-15 22:30:00,40.1,37.4,30.12,NW,315,3.0,11.0,90,0.00,,,0.11,0.00,VWS V14.00,2013-01-16 04:30:00,
2013-01-15 22:45:00,40.1,37.4,30.12,NW,315,3.0,12.0,90,0.00,,,0.11,0.00,VWS V14.00,2013-01-16 04:45:00,
2013-01-15 23:00:00,40.4,37.4,30.12,NW,315,3.0,10.0,89,0.00,,,0.11,0.00,VWS V14.00,2013-01-16 05:00:00,
2013-01-15 23:15:00,40.4,37.4,30.12,NW,315,4.0,11.0,89,0.00,,,0.11,0.00,VWS V14.00,2013-01-16 05:15:00,
2013-01-15 23:30:00,40.5,37.5,30.13,NW,315,3.0,11.0,89,0.00,,,0.11,0.00,VWS V14.00,2013-01-16 05:30:00,
2013-01-15 23:45:00,40.5,37.5,30.13,NW,315,3.0,12.0,89,0.00,,,0.11,0.00,VWS V14.00,2013-01-16 05:45:00,